createdAt,value
2023-03-17T00:00:58.630Z,99521.84
2023-03-17T00:03:29.539Z,99519.55
2023-03-17T00:05:58.719Z,99514.80
2023-03-17T00:08:30.016Z,99513.61
2023-03-17T00:10:58.595Z,99506.71
2023-03-17T00:13:27.101Z,99499.35
2023-03-17T00:16:01.206Z,99504.27
2023-03-17T00:18:31.820Z,99509.50
2023-03-17T00:21:05.896Z,99509.31
2023-03-17T00:23:35.489Z,99507.90
2023-03-17T00:26:04.207Z,99505.85
2023-03-17T00:28:35.329Z,99506.45
2023-03-17T00:31:11.598Z,99504.82
2023-03-17T00:33:40.723Z,99502.26
2023-03-17T00:36:13.708Z,99501.25
2023-03-17T00:38:42.199Z,99501.27
2023-03-17T00:41:14.007Z,99505.12
2023-03-17T00:43:46.236Z,99505.29
2023-03-17T00:46:29.362Z,99503.27
2023-03-17T00:48:59.827Z,99501.11
2023-03-17T00:51:29.408Z,99494.96
2023-03-17T00:53:58.117Z,99493.21
2023-03-17T00:56:29.906Z,99486.17
2023-03-17T00:58:58.964Z,99475.55
2023-03-17T01:01:27.965Z,99472.09
2023-03-17T01:03:57.589Z,99475.86
2023-03-17T01:06:26.179Z,99477.73
2023-03-17T01:08:55.373Z,99480.87
2023-03-17T01:11:24.130Z,99483.67
2023-03-17T01:13:54.585Z,99491.75
2023-03-17T01:16:23.668Z,99498.23
2023-03-17T01:18:52.460Z,99501.29
2023-03-17T01:21:21.220Z,99505.86
2023-03-17T01:23:49.820Z,99514.30
2023-03-17T01:26:19.274Z,99516.42
2023-03-17T01:28:48.087Z,99519.48
2023-03-17T01:31:17.581Z,99519.76
2023-03-17T01:33:47.694Z,99523.09
2023-03-17T01:36:16.480Z,99525.84
2023-03-17T01:38:48.276Z,99529.52
2023-03-17T01:41:18.738Z,99528.70
2023-03-17T01:43:50.134Z,99526.13
2023-03-17T01:46:26.012Z,99528.90
2023-03-17T01:49:06.929Z,99528.36
2023-03-17T01:51:57.794Z,99524.24
2023-03-17T01:54:35.014Z,99521.87
2023-03-17T01:57:09.490Z,99524.11
2023-03-17T01:59:42.418Z,99526.35
2023-03-17T02:02:11.913Z,99530.92
2023-03-17T02:04:41.116Z,99535.88
2023-03-17T02:07:10.359Z,99534.89
2023-03-17T02:09:44.846Z,99535.35
2023-03-17T02:12:15.500Z,99532.86
2023-03-17T02:14:44.546Z,99533.02
2023-03-17T02:17:22.407Z,99535.33
2023-03-17T02:19:51.940Z,99537.30
2023-03-17T02:22:20.771Z,99542.20
2023-03-17T02:24:56.051Z,99540.83
2023-03-17T02:27:34.987Z,99543.10
2023-03-17T02:30:06.904Z,99537.90
2023-03-17T02:32:38.364Z,99537.02
2023-03-17T02:35:10.518Z,99535.92
2023-03-17T02:37:43.852Z,99538.02
2023-03-17T02:40:14.430Z,99538.45
2023-03-17T02:42:47.144Z,99535.58
2023-03-17T02:45:16.150Z,99530.34
2023-03-17T02:47:47.263Z,99524.52
2023-03-17T02:50:24.128Z,99518.55
2023-03-17T02:52:52.705Z,99512.25
2023-03-17T02:55:21.495Z,99506.83
2023-03-17T02:57:50.352Z,99501.95
2023-03-17T03:00:21.717Z,99501.96
2023-03-17T03:02:51.478Z,99501.28
2023-03-17T03:05:25.057Z,99500.29
2023-03-17T03:07:54.278Z,99495.10
2023-03-17T03:10:23.288Z,99490.14
2023-03-17T03:12:53.610Z,99487.70
2023-03-17T03:15:23.487Z,99487.73
2023-03-17T03:17:52.293Z,99483.13
2023-03-17T03:20:22.303Z,99484.52
2023-03-17T03:22:51.587Z,99480.88
2023-03-17T03:25:22.318Z,99481.23
2023-03-17T03:27:51.131Z,99484.46
2023-03-17T03:30:19.745Z,99486.52
2023-03-17T03:32:52.732Z,99487.13
2023-03-17T03:35:22.099Z,99487.04
2023-03-17T03:37:51.082Z,99488.41
2023-03-17T03:40:20.217Z,99492.67
2023-03-17T03:42:48.997Z,99493.98
2023-03-17T03:45:18.145Z,99498.36
2023-03-17T03:47:46.932Z,99500.58
2023-03-17T03:50:16.410Z,99501.58
2023-03-17T03:52:45.977Z,99507.77
2023-03-17T03:55:14.426Z,99513.25
2023-03-17T03:57:44.269Z,99517.20
2023-03-17T04:00:14.304Z,99518.39
2023-03-17T04:02:45.208Z,99524.06
2023-03-17T04:05:15.608Z,99526.13
2023-03-17T04:07:47.988Z,99529.13
2023-03-17T04:10:16.684Z,99530.73
2023-03-17T04:12:46.114Z,99539.06
2023-03-17T04:15:18.694Z,99537.84
2023-03-17T04:17:48.796Z,99541.00
2023-03-17T04:20:17.941Z,99539.89
2023-03-17T04:22:49.566Z,99535.41
2023-03-17T04:25:18.364Z,99543.02
2023-03-17T04:27:47.411Z,99543.36
2023-03-17T04:30:17.188Z,99542.65
2023-03-17T04:32:46.716Z,99546.27
2023-03-17T04:35:19.015Z,99543.17
2023-03-17T04:37:49.615Z,99546.20
2023-03-17T04:40:24.291Z,99556.11
2023-03-17T04:42:53.456Z,99560.80
2023-03-17T04:45:22.256Z,99571.83
2023-03-17T04:47:51.286Z,99576.52
2023-03-17T04:50:20.114Z,99582.60
2023-03-17T04:52:52.860Z,99585.70
2023-03-17T04:55:21.551Z,99587.08
2023-03-17T04:57:50.212Z,99596.58
2023-03-17T05:00:19.860Z,99599.83
2023-03-17T05:02:48.601Z,99602.73
2023-03-17T05:05:19.310Z,99611.16
2023-03-17T05:07:47.986Z,99613.13
2023-03-17T05:10:16.785Z,99617.13
2023-03-17T05:12:46.042Z,99617.58
2023-03-17T05:15:15.685Z,99620.73
2023-03-17T05:17:44.425Z,99626.10
2023-03-17T05:20:13.379Z,99635.17
2023-03-17T05:22:42.497Z,99643.70
2023-03-17T05:25:17.079Z,99654.52
2023-03-17T05:27:46.677Z,99661.33
2023-03-17T05:30:16.030Z,99665.64
2023-03-17T05:32:45.702Z,99673.24
2023-03-17T05:35:14.688Z,99676.98
2023-03-17T05:37:45.329Z,99689.96
2023-03-17T05:40:14.941Z,99685.60
2023-03-17T05:42:43.538Z,99687.41
2023-03-17T05:45:12.687Z,99690.30
2023-03-17T05:47:44.805Z,99691.77
2023-03-17T05:50:14.256Z,99696.63
2023-03-17T05:52:43.562Z,99700.38
2023-03-17T05:55:19.005Z,99698.01
2023-03-17T05:57:49.834Z,99699.48
2023-03-17T06:00:19.157Z,99702.77
2023-03-17T06:02:49.102Z,99700.15
2023-03-17T06:05:18.155Z,99697.05
2023-03-17T06:07:54.951Z,99694.11
2023-03-17T06:10:25.718Z,99701.63
2023-03-17T06:12:54.366Z,99691.45
2023-03-17T06:15:23.088Z,99688.83
2023-03-17T06:17:52.018Z,99686.18
2023-03-17T06:20:23.855Z,99684.81
2023-03-17T06:23:03.906Z,99678.48
2023-03-17T06:25:34.855Z,99673.87
2023-03-17T06:28:05.815Z,99675.63
2023-03-17T06:30:36.762Z,99666.20
2023-03-17T06:33:09.556Z,99660.08
2023-03-17T06:35:41.314Z,99655.60
2023-03-17T06:38:10.101Z,99639.79
2023-03-17T06:40:38.794Z,99639.46
2023-03-17T06:43:07.803Z,99612.38
2023-03-17T06:45:38.321Z,99611.45
2023-03-17T06:48:07.227Z,99611.05
2023-03-17T06:50:36.065Z,99606.89
2023-03-17T06:53:07.398Z,99609.25
2023-03-17T06:55:36.217Z,99602.56
2023-03-17T06:58:06.911Z,99608.46
2023-03-17T07:00:38.690Z,99608.95
2023-03-17T07:03:07.418Z,99611.04
2023-03-17T07:05:36.075Z,99609.70
2023-03-17T07:08:04.689Z,99609.70
2023-03-17T07:10:33.515Z,99608.20
2023-03-17T07:13:05.319Z,99608.14
2023-03-17T07:15:36.108Z,99611.78
2023-03-17T07:18:07.177Z,99612.06
2023-03-17T07:20:36.714Z,99613.95
2023-03-17T07:23:05.613Z,99616.72
2023-03-17T07:25:36.992Z,99618.98
2023-03-17T07:28:05.831Z,99619.23
2023-03-17T07:30:35.829Z,99625.09
2023-03-17T07:33:05.079Z,99633.33
2023-03-17T07:35:34.880Z,99633.11
2023-03-17T07:38:03.926Z,99628.98
2023-03-17T07:40:35.260Z,99622.31
2023-03-17T07:43:04.801Z,99608.29
2023-03-17T07:45:36.252Z,99601.80
2023-03-17T07:48:05.391Z,99594.58
2023-03-17T07:50:35.114Z,99592.36
2023-03-17T07:53:04.180Z,99590.51
2023-03-17T07:55:33.212Z,99593.46
2023-03-17T07:58:03.087Z,99595.08
2023-03-17T08:00:32.282Z,99599.06
2023-03-17T08:03:10.441Z,99608.39
2023-03-17T08:05:39.918Z,99609.59
2023-03-17T08:08:12.909Z,99620.69
2023-03-17T08:10:42.726Z,99628.50
2023-03-17T08:13:11.288Z,99634.30
2023-03-17T08:15:42.581Z,99647.63
2023-03-17T08:18:11.384Z,99654.19
2023-03-17T08:20:41.066Z,99662.58
2023-03-17T08:23:11.599Z,99678.21
2023-03-17T08:25:40.889Z,99690.92
2023-03-17T08:28:10.517Z,99700.61
2023-03-17T08:30:39.931Z,99710.91
2023-03-17T08:33:09.629Z,99718.98
2023-03-17T08:35:41.903Z,99727.86
2023-03-17T08:38:11.443Z,99734.90
2023-03-17T08:40:40.150Z,99734.36
2023-03-17T08:43:09.573Z,99741.70
2023-03-17T08:45:39.312Z,99745.58
2023-03-17T08:48:08.682Z,99750.48
2023-03-17T08:50:38.068Z,99746.91
2023-03-17T08:53:08.904Z,99749.19
2023-03-17T08:55:38.137Z,99749.23
2023-03-17T08:58:06.671Z,99754.33
2023-03-17T09:00:36.259Z,99763.89
2023-03-17T09:03:06.003Z,99770.86
2023-03-17T09:05:37.590Z,99780.52
2023-03-17T09:08:07.840Z,99789.08
2023-03-17T09:10:37.256Z,99807.41
2023-03-17T09:13:09.224Z,99821.41
2023-03-17T09:15:40.760Z,99836.51
2023-03-17T09:18:09.557Z,99847.72
2023-03-17T09:20:38.144Z,99854.84
2023-03-17T09:23:10.963Z,99867.67
2023-03-17T09:25:40.045Z,99887.48
2023-03-17T09:28:12.202Z,99903.94
2023-03-17T09:30:42.991Z,99919.30
2023-03-17T09:33:14.734Z,99938.27
2023-03-17T09:35:43.586Z,99952.45
2023-03-17T09:38:13.117Z,99966.95
2023-03-17T09:40:48.255Z,99974.94
2023-03-17T09:43:38.988Z,99982.38
2023-03-17T09:46:28.303Z,99989.55
2023-03-17T09:49:02.275Z,99997.78
2023-03-17T09:51:43.736Z,100009.23
2023-03-17T09:54:18.698Z,100014.30
2023-03-17T09:56:57.906Z,100019.43
2023-03-17T09:59:42.186Z,100026.20
2023-03-17T10:02:27.978Z,100023.28
2023-03-17T10:04:57.628Z,100030.31
2023-03-17T10:07:29.869Z,100030.74
2023-03-17T10:10:03.645Z,100037.48
2023-03-17T10:12:49.920Z,100043.40
2023-03-17T10:15:20.994Z,100052.70
2023-03-17T10:17:52.058Z,100067.42
2023-03-17T10:20:31.153Z,100084.38
2023-03-17T10:23:07.588Z,100095.44
2023-03-17T10:25:36.769Z,100107.52
2023-03-17T10:28:30.143Z,100114.69
2023-03-17T10:31:23.086Z,100126.75
2023-03-17T10:34:11.933Z,100129.12
2023-03-17T10:36:44.697Z,100137.70
2023-03-17T10:39:16.305Z,100152.35
2023-03-17T10:41:58.570Z,100161.16
2023-03-17T10:44:56.682Z,100169.94
2023-03-17T10:47:41.538Z,100178.29
2023-03-17T10:50:29.243Z,100193.64
2023-03-17T10:53:07.840Z,100202.07
2023-03-17T10:55:42.874Z,100205.05
2023-03-17T10:58:15.501Z,100206.96
2023-03-17T11:01:13.433Z,100209.67
2023-03-17T11:03:42.178Z,100213.91
2023-03-17T11:06:13.030Z,100226.10
2023-03-17T11:08:49.179Z,100230.14
2023-03-17T11:11:34.979Z,100239.29
2023-03-17T11:14:12.061Z,100239.77
2023-03-17T11:16:54.214Z,100242.92
2023-03-17T11:19:47.858Z,100243.89
2023-03-17T11:22:21.361Z,100248.26
2023-03-17T11:25:19.881Z,100252.73
2023-03-17T11:28:00.066Z,100254.74
2023-03-17T11:30:34.878Z,100258.55
2023-03-17T11:33:38.730Z,100258.80
2023-03-17T11:36:19.486Z,100252.85
2023-03-17T11:39:23.522Z,100263.79
2023-03-17T11:42:06.281Z,100274.41
2023-03-17T11:45:09.087Z,100286.20
2023-03-17T11:47:45.268Z,100295.61
2023-03-17T11:50:22.859Z,100299.08
2023-03-17T11:52:59.266Z,100304.00
2023-03-17T11:55:45.014Z,100309.52
2023-03-17T11:58:25.235Z,100311.73
2023-03-17T12:00:58.740Z,100319.77
2023-03-17T12:03:33.672Z,100322.73
2023-03-17T12:06:05.814Z,100322.17
2023-03-17T12:08:42.675Z,100323.23
2023-03-17T12:11:22.274Z,100322.73
2023-03-17T12:13:58.767Z,100325.74
2023-03-17T12:16:35.945Z,100324.57
2023-03-17T12:19:11.823Z,100329.21
2023-03-17T12:22:23.012Z,100329.54
2023-03-17T12:25:05.070Z,100332.20
2023-03-17T12:27:37.546Z,100332.52
2023-03-17T12:30:15.707Z,100336.88
2023-03-17T12:32:53.743Z,100334.44
2023-03-17T12:35:28.231Z,100335.02
2023-03-17T12:38:14.673Z,100336.48
2023-03-17T12:41:15.996Z,100336.71
2023-03-17T12:43:59.129Z,100336.36
2023-03-17T12:47:07.105Z,100335.52
2023-03-17T12:49:54.477Z,100330.30
2023-03-17T12:52:32.429Z,100339.64
2023-03-17T12:55:02.248Z,100350.14
2023-03-17T12:57:47.268Z,100360.46
2023-03-17T13:00:17.342Z,100362.42
2023-03-17T13:02:49.741Z,100367.98
2023-03-17T13:05:19.844Z,100370.76
2023-03-17T13:07:55.137Z,100370.92
2023-03-17T13:10:42.174Z,100377.92
2023-03-17T13:13:21.743Z,100376.23
2023-03-17T13:15:55.593Z,100376.91
2023-03-17T13:18:34.684Z,100384.77
2023-03-17T13:21:07.349Z,100389.90
2023-03-17T13:23:48.792Z,100395.80
2023-03-17T13:26:22.173Z,100400.20
2023-03-17T13:28:52.830Z,100406.05
2023-03-17T13:31:27.523Z,100410.30
2023-03-17T13:34:18.144Z,100407.08
2023-03-17T13:36:59.259Z,100411.88
2023-03-17T13:39:43.037Z,100420.14
2023-03-17T13:42:30.770Z,100422.17
2023-03-17T13:45:07.395Z,100427.97
2023-03-17T13:47:38.528Z,100430.54
2023-03-17T13:50:21.790Z,100439.16
2023-03-17T13:52:55.751Z,100447.73
2023-03-17T13:55:25.169Z,100465.30
2023-03-17T13:58:11.951Z,100487.13
2023-03-17T14:00:47.656Z,100487.88
2023-03-17T14:03:22.589Z,100490.36
2023-03-17T14:05:52.985Z,100483.71
2023-03-17T14:08:28.870Z,100489.13
2023-03-17T14:11:01.859Z,100486.88
2023-03-17T14:13:36.931Z,100492.58
2023-03-17T14:16:21.725Z,100492.92
2023-03-17T14:18:59.099Z,100497.58
2023-03-17T14:21:32.684Z,100503.38
2023-03-17T14:24:04.576Z,100512.67
2023-03-17T14:26:33.354Z,100523.41
2023-03-17T14:29:03.526Z,100530.64
2023-03-17T14:31:33.657Z,100529.60
2023-03-17T14:34:02.543Z,100526.10
2023-03-17T14:36:33.040Z,100527.79
2023-03-17T14:39:01.984Z,100525.96
2023-03-17T14:41:32.829Z,100528.94
2023-03-17T14:44:08.689Z,100530.05
2023-03-17T14:46:38.890Z,100530.23
2023-03-17T14:49:18.792Z,100537.80
2023-03-17T14:51:53.645Z,100540.55
2023-03-17T14:54:25.660Z,100542.88
2023-03-17T14:57:05.418Z,100542.88
2023-03-17T14:59:39.109Z,100546.32
2023-03-17T15:02:25.257Z,100552.80
2023-03-17T15:05:00.062Z,100551.34
2023-03-17T15:07:29.940Z,100557.92
2023-03-17T15:10:02.436Z,100560.00
2023-03-17T15:12:31.970Z,100560.64
2023-03-17T15:15:03.293Z,100560.38
2023-03-17T15:17:36.853Z,100565.24
2023-03-17T15:20:07.710Z,100566.73
2023-03-17T15:22:42.331Z,100569.02
2023-03-17T15:25:35.501Z,100574.88
2023-03-17T15:28:12.213Z,100574.48
2023-03-17T15:30:50.028Z,100580.91
2023-03-17T15:33:23.698Z,100578.09
2023-03-17T15:36:00.264Z,100578.33
2023-03-17T15:38:30.298Z,100579.11
2023-03-17T15:40:59.105Z,100581.77
2023-03-17T15:43:27.824Z,100580.73
2023-03-17T15:46:04.647Z,100580.69
2023-03-17T15:48:36.389Z,100580.93
2023-03-17T15:51:05.599Z,100578.73
2023-03-17T15:53:35.055Z,100580.30
2023-03-17T15:56:04.910Z,100579.58
2023-03-17T15:58:35.140Z,100585.95
2023-03-17T16:01:04.751Z,100587.42
2023-03-17T16:03:34.741Z,100591.75
2023-03-17T16:06:04.709Z,100592.56
2023-03-17T16:08:34.029Z,100598.05
2023-03-17T16:11:02.611Z,100598.61
2023-03-17T16:13:32.067Z,100599.09
2023-03-17T16:16:05.772Z,100602.44
2023-03-17T16:18:37.121Z,100606.39
2023-03-17T16:21:09.384Z,100609.64
2023-03-17T16:23:41.195Z,100614.81
2023-03-17T16:26:15.943Z,100616.95
2023-03-17T16:28:46.318Z,100619.53
2023-03-17T16:31:26.804Z,100617.05
2023-03-17T16:33:55.768Z,100614.93
2023-03-17T16:36:26.145Z,100612.94
2023-03-17T16:38:55.166Z,100619.33
2023-03-17T16:41:25.352Z,100623.73
2023-03-17T16:44:00.163Z,100625.02
2023-03-17T16:46:34.875Z,100630.41
2023-03-17T16:49:07.373Z,100635.11
2023-03-17T16:51:36.045Z,100640.99
2023-03-17T16:54:07.057Z,100642.70
2023-03-17T16:56:36.622Z,100643.85
2023-03-17T16:59:19.906Z,100642.73
2023-03-17T17:01:48.894Z,100645.23
2023-03-17T17:04:17.468Z,100648.48
2023-03-17T17:06:47.601Z,100652.58
2023-03-17T17:09:16.423Z,100657.06
2023-03-17T17:11:45.807Z,100662.34
2023-03-17T17:14:15.052Z,100662.52
2023-03-17T17:16:44.232Z,100663.20
2023-03-17T17:19:16.782Z,100659.77
2023-03-17T17:21:45.533Z,100663.95
2023-03-17T17:24:15.648Z,100665.12
2023-03-17T17:26:44.295Z,100661.89
2023-03-17T17:29:13.155Z,100665.80
2023-03-17T17:31:42.024Z,100667.48
2023-03-17T17:34:10.658Z,100666.67
2023-03-17T17:36:39.647Z,100668.69
2023-03-17T17:39:11.795Z,100671.08
2023-03-17T17:41:40.652Z,100669.42
2023-03-17T17:44:11.677Z,100672.33
2023-03-17T17:46:42.380Z,100673.34
2023-03-17T17:49:12.461Z,100671.95
2023-03-17T17:51:41.444Z,100677.17
2023-03-17T17:54:10.899Z,100676.98
2023-03-17T17:56:46.937Z,100682.96
2023-03-17T17:59:15.908Z,100682.93
2023-03-17T18:01:45.214Z,100686.16
2023-03-17T18:04:20.124Z,100683.75
2023-03-17T18:06:49.241Z,100684.19
2023-03-17T18:09:21.875Z,100684.33
2023-03-17T18:11:51.642Z,100685.36
2023-03-17T18:14:45.264Z,100683.48
2023-03-17T18:18:28.206Z,100681.17
2023-03-17T18:25:45.398Z,100682.21
2023-03-17T18:32:14.008Z,100681.91
2023-03-17T18:34:46.659Z,100692.96
2023-03-17T18:37:16.796Z,100690.90
2023-03-17T18:39:55.534Z,100691.75
2023-03-17T18:42:34.448Z,100694.45
2023-03-17T18:45:07.178Z,100699.54
2023-03-17T18:47:39.227Z,100707.86
2023-03-17T18:50:11.772Z,100709.77
2023-03-17T18:52:42.765Z,100712.00
2023-03-17T18:55:13.057Z,100713.35
2023-03-17T18:57:44.724Z,100713.35
2023-03-17T19:00:16.421Z,100713.05
2023-03-17T19:02:45.827Z,100705.77
2023-03-17T19:05:15.510Z,100704.95
2023-03-17T19:07:45.489Z,100701.56
2023-03-17T19:10:14.426Z,100707.50
2023-03-17T19:12:45.620Z,100706.77
2023-03-17T19:15:14.831Z,100704.29
2023-03-17T19:17:47.240Z,100704.75
2023-03-17T19:20:16.218Z,100710.33
2023-03-17T19:22:46.444Z,100713.32
2023-03-17T19:25:16.743Z,100713.64
2023-03-17T19:27:45.580Z,100707.75
2023-03-17T19:30:14.920Z,100708.95
2023-03-17T19:32:44.565Z,100703.41
2023-03-17T19:35:13.275Z,100701.36
2023-03-17T19:37:42.058Z,100697.30
2023-03-17T19:40:13.659Z,100697.70
2023-03-17T19:42:43.458Z,100692.74
2023-03-17T19:45:12.172Z,100689.70
2023-03-17T19:47:41.408Z,100692.45
2023-03-17T19:50:10.533Z,100690.04
2023-03-17T19:52:39.625Z,100691.73
2023-03-17T19:55:11.659Z,100691.67
2023-03-17T19:57:40.705Z,100691.46
2023-03-17T20:00:09.928Z,100687.46
2023-03-17T20:02:40.202Z,100682.71
2023-03-17T20:05:09.393Z,100682.37
2023-03-17T20:07:41.359Z,100683.63
2023-03-17T20:10:11.200Z,100684.80
2023-03-17T20:12:40.659Z,100686.70
2023-03-17T20:15:12.807Z,100690.45
2023-03-17T20:17:41.866Z,100685.11
2023-03-17T20:20:12.391Z,100676.42
2023-03-17T20:22:44.024Z,100676.16
2023-03-17T20:25:13.143Z,100679.55
2023-03-17T20:27:44.202Z,100677.05
2023-03-17T20:30:13.188Z,100675.92
2023-03-17T20:32:41.899Z,100672.77
2023-03-17T20:35:11.012Z,100676.45
2023-03-17T20:37:40.081Z,100677.45
2023-03-17T20:40:11.651Z,100685.93
2023-03-17T20:42:40.673Z,100683.18
2023-03-17T20:45:10.468Z,100685.83
2023-03-17T20:47:41.215Z,100686.39
2023-03-17T20:50:10.549Z,100691.42
2023-03-17T20:52:40.054Z,100694.96
2023-03-17T20:55:14.024Z,100698.83
2023-03-17T20:57:45.723Z,100696.27
2023-03-17T21:00:18.382Z,100701.45
2023-03-17T21:02:50.272Z,100697.27
2023-03-17T21:05:28.514Z,100701.80
2023-03-17T21:07:57.866Z,100702.48
2023-03-17T21:10:26.618Z,100703.02
2023-03-17T21:12:57.491Z,100703.52
2023-03-17T21:15:26.337Z,100699.09
2023-03-17T21:17:55.129Z,100701.31
2023-03-17T21:20:25.397Z,100701.32
2023-03-17T21:22:54.209Z,100699.59
2023-03-17T21:25:24.825Z,100702.12
2023-03-17T21:27:54.192Z,100700.22
2023-03-17T21:30:22.710Z,100700.73
2023-03-17T21:32:51.751Z,100704.94
2023-03-17T21:35:22.142Z,100709.02
2023-03-17T21:37:53.641Z,100709.61
2023-03-17T21:40:23.352Z,100714.70
2023-03-17T21:42:52.902Z,100718.28
2023-03-17T21:45:22.289Z,100720.70
2023-03-17T21:47:51.160Z,100726.79
2023-03-17T21:50:20.375Z,100732.80
2023-03-17T21:52:49.547Z,100736.51
2023-03-17T21:55:18.611Z,100740.52
2023-03-17T21:57:47.322Z,100743.75
2023-03-17T22:00:17.282Z,100746.98
2023-03-17T22:02:46.800Z,100751.11
2023-03-17T22:05:16.733Z,100750.64
2023-03-17T22:07:46.173Z,100755.14
2023-03-17T22:10:14.965Z,100759.87
2023-03-17T22:12:44.348Z,100757.52
2023-03-17T22:15:13.906Z,100760.33
2023-03-17T22:17:44.084Z,100762.74
2023-03-17T22:20:13.205Z,100764.34
2023-03-17T22:22:46.877Z,100764.10
2023-03-17T22:25:15.913Z,100763.77
2023-03-17T22:27:44.816Z,100762.89
2023-03-17T22:30:15.354Z,100764.14
2023-03-17T22:32:43.992Z,100765.98
2023-03-17T22:35:22.789Z,100770.60
2023-03-17T22:37:51.825Z,100774.13
2023-03-17T22:40:20.633Z,100777.96
2023-03-17T22:42:52.054Z,100772.59
2023-03-17T22:45:21.406Z,100774.79
2023-03-17T22:47:50.394Z,100777.09
2023-03-17T22:50:19.150Z,100780.39
2023-03-17T22:52:48.142Z,100784.66
2023-03-17T22:55:16.894Z,100785.94
2023-03-17T22:57:46.561Z,100791.92
2023-03-17T23:00:17.238Z,100796.73
2023-03-17T23:02:46.850Z,100800.55
2023-03-17T23:05:16.290Z,100797.83
2023-03-17T23:07:53.046Z,100798.86
2023-03-17T23:10:23.358Z,100802.67
2023-03-17T23:12:56.897Z,100804.54
2023-03-17T23:15:29.115Z,100802.44
2023-03-17T23:17:58.386Z,100801.67
2023-03-17T23:20:32.024Z,100803.09
2023-03-17T23:23:01.073Z,100812.23
2023-03-17T23:25:36.921Z,100812.08
2023-03-17T23:28:07.059Z,100808.41
2023-03-17T23:30:41.347Z,100811.30
2023-03-17T23:33:10.591Z,100812.77
2023-03-17T23:35:39.908Z,100817.44
2023-03-17T23:38:19.597Z,100822.45
2023-03-17T23:40:48.916Z,100819.74
2023-03-17T23:43:17.561Z,100823.16
2023-03-17T23:45:46.855Z,100822.64
2023-03-17T23:48:16.709Z,100822.01
2023-03-17T23:50:56.112Z,100826.96
2023-03-17T23:53:25.407Z,100829.70
2023-03-17T23:55:55.028Z,100824.37
2023-03-17T23:58:25.552Z,100818.64
